Time;durP1;ratioP1;P1;durP2;ratioP2;P2;SDS_P1;SDS_P2;PMS_P1;PMS_P2;Temp;Humidity;BMP_temperature;BMP_pressure;BME280_temperature;BME280_humidity;BME280_pressure;Samples;Min_cycle;Max_cycle;Signal;HPM_P1;HPM_P2
2023/04/24 00:02:22;;;;;;;30.98;29.33;;;;;;;17.66;50.16;99871.22;4997165;28;20041;-77
2023/04/24 00:04:48;;;;;;;30.80;29.00;;;;;;;17.66;50.11;99872.03;5013151;28;20030;-76
2023/04/24 00:07:16;;;;;;;32.50;30.52;;;;;;;17.64;50.31;99874.28;5013165;28;20041;-76
2023/04/24 00:09:42;;;;;;;31.02;29.20;;;;;;;17.61;50.26;99877.63;5013387;28;20040;-76
2023/04/24 00:12:08;;;;;;;34.53;32.28;;;;;;;17.61;50.64;99883.06;5013746;28;20034;-77
2023/04/24 00:14:34;;;;;;;32.83;30.67;;;;;;;17.60;50.35;99883.41;4995897;28;20478;-76
2023/04/24 00:17:00;;;;;;;34.17;32.20;;;;;;;17.59;50.45;99885.34;5013891;28;20118;-77
2023/04/24 00:19:27;;;;;;;33.00;30.92;;;;;;;17.58;50.15;99882.91;5016938;28;20053;-77
2023/04/24 00:21:53;;;;;;;33.08;31.17;;;;;;;17.55;50.61;99878.88;5017494;28;20100;-78
2023/04/24 00:24:19;;;;;;;31.15;29.05;;;;;;;17.54;50.47;99880.00;5016602;28;20116;-76
2023/04/24 00:26:44;;;;;;;33.00;30.98;;;;;;;17.53;50.39;99887.38;5016589;28;20109;-76
2023/04/24 00:29:09;;;;;;;31.95;29.65;;;;;;;17.52;50.65;99872.09;5016326;28;20489;-76
2023/04/24 00:31:35;;;;;;;34.80;32.53;;;;;;;17.50;50.67;99884.47;5016521;28;20088;-76
2023/04/24 00:34:02;;;;;;;34.13;31.73;;;;;;;17.48;50.37;99886.69;5017250;28;20037;-76
2023/04/24 00:36:27;;;;;;;29.05;27.48;;;;;;;17.47;50.58;99890.53;5016583;28;20114;-76
2023/04/24 00:38:53;;;;;;;33.13;31.02;;;;;;;17.45;50.66;99881.84;5016978;28;20117;-77
2023/04/24 00:41:19;;;;;;;32.33;30.17;;;;;;;17.46;50.63;99883.44;4999840;28;20044;-75
2023/04/24 00:43:45;;;;;;;31.30;29.30;;;;;;;17.43;50.60;99876.69;5017087;28;20026;-78
2023/04/24 00:46:12;;;;;;;35.47;33.05;;;;;;;17.43;50.29;99884.06;5016425;28;20038;-77
2023/04/24 00:48:39;;;;;;;34.95;32.55;;;;;;;17.42;50.73;99874.28;5016761;28;20034;-77
2023/04/24 00:51:05;;;;;;;34.10;31.90;;;;;;;17.41;50.54;99881.66;5016531;28;20042;-76
2023/04/24 00:53:30;;;;;;;34.50;32.28;;;;;;;17.39;50.43;99878.44;5016245;28;20040;-77
2023/04/24 00:55:56;;;;;;;32.50;30.48;;;;;;;17.38;50.87;99878.75;5016106;28;20026;-76
2023/04/24 00:58:22;;;;;;;34.17;31.85;;;;;;;17.36;50.76;99884.53;4998585;28;20082;-76
2023/04/24 01:00:50;;;;;;;31.38;29.50;;;;;;;17.35;50.74;99874.69;5016342;28;20466;-76
2023/04/24 01:03:16;;;;;;;30.65;28.92;;;;;;;17.34;50.93;99881.28;5014591;28;20476;-75
2023/04/24 01:05:42;;;;;;;32.80;30.42;;;;;;;17.33;50.42;99885.13;5016220;28;20038;-77
2023/04/24 01:08:07;;;;;;;33.92;31.67;;;;;;;17.33;50.48;99884.31;5015723;28;20083;-77
2023/04/24 01:10:34;;;;;;;33.17;31.05;;;;;;;17.30;50.67;99883.81;5015812;28;20026;-77
2023/04/24 01:13:00;;;;;;;34.30;31.58;;;;;;;17.30;50.82;99883.00;5016039;28;20658;-78
2023/04/24 01:15:25;;;;;;;32.58;30.30;;;;;;;17.28;50.50;99877.84;5015412;28;20069;-76
2023/04/24 01:17:51;;;;;;;30.50;28.85;;;;;;;17.26;50.54;99874.66;5014460;28;20038;-77
2023/04/24 01:20:17;;;;;;;31.48;29.58;;;;;;;17.25;50.85;99873.00;5015982;28;20057;-76
2023/04/24 01:22:42;;;;;;;29.10;27.50;;;;;;;17.25;50.82;99878.47;5015583;28;20490;-76
2023/04/24 01:25:08;;;;;;;32.92;30.77;;;;;;;17.23;50.73;99883.44;5016440;28;20045;-76
2023/04/24 01:27:34;;;;;;;30.88;28.88;;;;;;;17.21;50.55;99882.13;5015293;28;20100;-76
2023/04/24 01:30:00;;;;;;;36.80;33.63;;;;;;;17.20;50.62;99885.97;5015207;28;20462;-76
2023/04/24 01:32:26;;;;;;;32.92;30.70;;;;;;;17.19;50.75;99879.72;5016610;28;20505;-76
2023/04/24 01:34:51;;;;;;;33.45;30.98;;;;;;;17.18;51.05;99888.19;4999278;28;20133;-76
2023/04/24 01:37:17;;;;;;;36.40;33.42;;;;;;;17.17;51.08;99881.13;4998388;28;20484;-77
2023/04/24 01:39:43;;;;;;;34.85;32.60;;;;;;;17.15;50.81;99892.34;5015481;28;20402;-77
2023/04/24 01:42:09;;;;;;;31.13;29.15;;;;;;;17.15;51.13;99889.63;5015461;28;20038;-76
2023/04/24 01:44:35;;;;;;;35.92;33.15;;;;;;;17.13;51.18;99889.13;5015134;28;20458;-76
2023/04/24 01:47:01;;;;;;;33.83;31.60;;;;;;;17.13;50.61;99894.56;5015125;28;20080;-76
2023/04/24 01:49:27;;;;;;;38.85;35.70;;;;;;;17.12;50.79;99889.44;5014965;28;20022;-76
2023/04/24 01:51:52;;;;;;;32.45;30.25;;;;;;;17.11;50.77;99894.09;5015040;28;20057;-78
2023/04/24 01:54:18;;;;;;;36.45;33.38;;;;;;;17.10;50.99;99892.47;5015616;28;20042;-77
2023/04/24 01:56:43;;;;;;;36.38;33.28;;;;;;;17.09;50.92;99905.31;4997966;28;20161;-75
2023/04/24 01:59:12;;;;;;;32.20;29.77;;;;;;;17.07;50.67;99898.53;4997637;28;20033;-76
2023/04/24 02:01:38;;;;;;;;;;;;;;;17.04;50.96;99899.16;5016018;28;20125;-75
2023/04/24 02:04:05;;;;;;;31.27;28.90;;;;;;;17.02;51.23;99898.66;5014404;28;20008;-75
2023/04/24 02:06:31;;;;;;;33.80;31.20;;;;;;;17.00;50.94;99903.59;5014403;28;20474;-75
2023/04/24 02:08:58;;;;;;;33.03;30.98;;;;;;;16.99;50.83;99902.00;5014716;28;20105;-77
2023/04/24 02:11:23;;;;;;;31.70;29.77;;;;;;;16.97;50.80;99898.75;5015068;28;20034;-77
2023/04/24 02:13:49;;;;;;;31.27;28.90;;;;;;;16.96;50.86;99900.69;5014755;28;20470;-76
2023/04/24 02:16:15;;;;;;;31.33;29.27;;;;;;;16.94;50.78;99896.66;5014440;28;20034;-75
2023/04/24 02:18:40;;;;;;;34.10;31.65;;;;;;;16.96;50.81;99899.88;5014015;28;20034;-76
2023/04/24 02:21:06;;;;;;;33.08;30.80;;;;;;;16.94;50.83;99896.66;4997271;28;20038;-76
2023/04/24 02:23:31;;;;;;;34.63;31.92;;;;;;;16.93;51.09;99903.22;5015117;28;20363;-76
2023/04/24 02:25:56;;;;;;;33.40;31.25;;;;;;;16.92;50.81;99902.41;5014272;28;20390;-76
2023/04/24 02:28:22;;;;;;;33.22;30.30;;;;;;;16.91;51.04;99899.97;5014824;28;20111;-76
2023/04/24 02:30:47;;;;;;;30.95;29.05;;;;;;;16.91;50.83;99894.53;5014888;28;20049;-76
2023/04/24 02:33:13;;;;;;;32.58;30.05;;;;;;;16.88;50.78;99895.94;5014358;28;20038;-75
2023/04/24 02:35:38;;;;;;;31.85;29.95;;;;;;;16.87;50.93;99891.59;4997407;28;20450;-76
2023/04/24 02:38:04;;;;;;;28.65;26.92;;;;;;;16.86;50.77;99887.28;5014697;28;20121;-77
2023/04/24 02:40:30;;;;;;;32.65;30.45;;;;;;;16.85;51.27;99888.38;5014064;28;20087;-76
2023/04/24 02:42:55;;;;;;;31.15;29.05;;;;;;;16.83;50.71;99899.59;4997627;28;20065;-76
2023/04/24 02:45:20;;;;;;;29.58;27.67;;;;;;;16.83;51.12;99893.31;5014757;28;20454;-75
2023/04/24 02:47:46;;;;;;;33.00;30.80;;;;;;;16.82;50.78;99894.44;5015292;28;20038;-76
2023/04/24 02:50:11;;;;;;;31.67;29.33;;;;;;;16.81;50.75;99893.66;5014528;28;20033;-76
2023/04/24 02:52:37;;;;;;;33.40;31.02;;;;;;;16.80;51.00;99889.28;5014376;28;20043;-76
2023/04/24 02:55:02;;;;;;;31.08;29.02;;;;;;;16.78;51.37;99899.72;5014288;28;20034;-76
2023/04/24 02:57:28;;;;;;;33.17;31.05;;;;;;;16.77;50.75;99889.88;4997322;28;20034;-76
2023/04/24 02:59:53;;;;;;;30.40;28.45;;;;;;;16.76;51.18;99890.19;5014265;28;20063;-74
2023/04/24 03:02:20;;;;;;;33.03;30.92;;;;;;;16.73;50.87;99883.44;5013853;28;20042;-76
2023/04/24 03:04:47;;;;;;;31.23;28.98;;;;;;;16.71;50.95;99880.19;5014260;28;20121;-76
2023/04/24 03:07:13;;;;;;;30.50;28.70;;;;;;;16.70;51.01;99875.84;5013791;28;20042;-75
2023/04/24 03:09:39;;;;;;;33.22;31.02;;;;;;;16.70;51.23;99866.84;5013744;28;20061;-75
2023/04/24 03:12:04;;;;;;;32.55;30.02;;;;;;;16.67;51.19;99879.16;5013784;28;20042;-75
2023/04/24 03:14:31;;;;;;;32.53;30.42;;;;;;;16.68;50.90;99878.06;5013699;28;20092;-74
2023/04/24 03:16:56;;;;;;;28.25;26.30;;;;;;;16.67;51.04;99879.16;5013712;28;20030;-75
2023/04/24 03:19:22;;;;;;;35.38;32.67;;;;;;;16.66;51.09;99877.56;5013277;28;20053;-75
2023/04/24 03:21:48;;;;;;;32.00;29.95;;;;;;;16.64;51.02;99874.34;4996291;28;20030;-76
2023/04/24 03:24:13;;;;;;;29.38;27.65;;;;;;;16.62;51.03;99876.56;5013700;28;20038;-76
2023/04/24 03:26:38;;;;;;;32.45;30.20;;;;;;;16.60;50.88;99873.31;5013592;28;20084;-76
2023/04/24 03:29:04;;;;;;;34.30;31.65;;;;;;;16.57;50.95;99876.66;5013560;28;20445;-76
2023/04/24 03:31:29;;;;;;;33.00;30.60;;;;;;;16.57;50.89;99868.47;4996025;28;20494;-76
2023/04/24 03:33:55;;;;;;;29.88;28.05;;;;;;;16.56;51.09;99869.59;5013840;28;20045;-76
2023/04/24 03:36:20;;;;;;;28.27;26.75;;;;;;;16.54;50.96;99871.81;5013702;28;20029;-76
2023/04/24 03:38:45;;;;;;;31.05;28.98;;;;;;;16.55;50.88;99867.97;4996039;28;20087;-78
2023/04/24 03:41:11;;;;;;;31.27;29.27;;;;;;;16.52;50.76;99871.31;5013512;28;20041;-77
2023/04/24 03:43:37;;;;;;;31.33;29.40;;;;;;;16.53;50.97;99876.47;5013588;28;20389;-75
2023/04/24 03:46:03;;;;;;;31.05;29.05;;;;;;;16.51;51.08;99870.50;5013574;28;20050;-77
2023/04/24 03:48:29;;;;;;;28.90;27.25;;;;;;;16.50;51.11;99868.88;5013486;28;20474;-75
2023/04/24 03:50:54;;;;;;;32.70;30.55;;;;;;;16.50;50.83;99866.16;5013368;28;20069;-76
2023/04/24 03:53:20;;;;;;;30.00;28.05;;;;;;;16.47;51.13;99872.22;4997994;28;20132;-75
2023/04/24 03:55:46;;;;;;;28.23;26.67;;;;;;;16.47;50.90;99876.88;5017721;28;20026;-76
2023/04/24 03:58:13;;;;;;;32.33;30.08;;;;;;;16.46;50.77;99867.09;5017548;28;20072;-78
2023/04/24 04:00:40;;;;;;;33.40;30.73;;;;;;;16.45;50.90;99866.25;5017370;28;20096;-76
2023/04/24 04:03:05;;;;;;;31.17;29.08;;;;;;;16.42;50.96;99870.38;5017509;28;20079;-75
2023/04/24 04:05:31;;;;;;;29.00;27.30;;;;;;;16.41;51.20;99871.50;5016979;28;20466;-75
2023/04/24 04:07:56;;;;;;;30.92;28.73;;;;;;;16.42;50.88;99877.75;5017783;28;20038;-78
2023/04/24 04:10:21;;;;;;;31.00;28.52;;;;;;;16.41;50.95;99873.44;5017459;28;20057;-76
2023/04/24 04:12:47;;;;;;;29.00;27.15;;;;;;;16.41;51.09;99878.88;5016980;28;20036;-76
2023/04/24 04:15:12;;;;;;;28.95;27.13;;;;;;;16.38;50.82;99869.41;5017482;28;20470;-75
2023/04/24 04:17:38;;;;;;;31.23;29.25;;;;;;;16.38;50.84;99877.56;5016825;28;20030;-75
2023/04/24 04:20:08;;;;;;;29.90;27.90;;;;;;;16.37;51.05;99883.31;5017122;28;20069;-76
2023/04/24 04:22:34;;;;;;;29.35;27.45;;;;;;;16.37;51.18;99883.31;5017016;28;20034;-75
2023/04/24 04:24:59;;;;;;;29.23;27.38;;;;;;;16.35;51.13;99901.88;5016296;28;20451;-75
2023/04/24 04:27:25;;;;;;;30.35;28.45;;;;;;;16.34;50.81;99901.09;5016761;28;20034;-75
2023/04/24 04:29:51;;;;;;;28.40;26.58;;;;;;;16.35;51.18;99907.34;5016636;28;20034;-76
2023/04/24 04:32:16;;;;;;;28.55;26.70;;;;;;;16.32;51.27;99911.47;4999195;28;20466;-76
2023/04/24 04:34:42;;;;;;;31.67;29.42;;;;;;;16.31;50.96;99912.59;5016626;28;20045;-76
2023/04/24 04:37:08;;;;;;;30.42;28.27;;;;;;;16.32;51.16;99921.56;5016852;28;20120;-76
2023/04/24 04:39:34;;;;;;;28.45;26.70;;;;;;;16.32;51.22;99916.13;5017192;28;20522;-76
2023/04/24 04:42:00;;;;;;;30.00;28.10;;;;;;;16.30;51.02;99921.84;4999388;28;20133;-75
2023/04/24 04:44:27;;;;;;;30.52;28.50;;;;;;;16.31;51.02;99919.97;5016189;28;20088;-75
2023/04/24 04:46:56;;;;;;;29.98;27.92;;;;;;;16.29;50.89;99920.25;5015764;28;20034;-75
2023/04/24 04:49:23;;;;;;;28.40;26.45;;;;;;;16.28;51.08;99924.09;5016216;28;20109;-76
2023/04/24 04:51:50;;;;;;;29.13;26.63;;;;;;;16.29;51.26;99927.63;5016140;28;20033;-76
2023/04/24 04:54:16;;;;;;;27.42;25.88;;;;;;;16.26;50.87;99920.06;5016428;28;20034;-75
2023/04/24 04:56:41;;;;;;;28.33;26.65;;;;;;;16.24;51.28;99917.63;5016197;28;20133;-76
2023/04/24 04:59:07;;;;;;;25.95;24.55;;;;;;;16.22;51.10;99928.00;4999417;28;20473;-77
2023/04/24 05:01:32;;;;;;;28.23;26.55;;;;;;;16.20;50.97;99930.22;4999331;28;20030;-77
2023/04/24 05:03:57;;;;;;;30.08;28.27;;;;;;;16.19;51.02;99928.63;4998544;28;20462;-75
2023/04/24 05:06:23;;;;;;;27.35;25.60;;;;;;;16.20;51.06;99932.94;5016010;28;20040;-78
2023/04/24 05:08:48;;;;;;;26.52;25.13;;;;;;;16.17;51.37;99937.06;5015903;28;20113;-79
2023/04/24 05:11:14;;;;;;;26.02;24.63;;;;;;;16.15;51.32;99943.94;5016144;28;20121;-77
2023/04/24 05:13:40;;;;;;;27.83;26.02;;;;;;;16.16;51.42;99951.03;5015692;28;20536;-78
2023/04/24 05:16:06;;;;;;;26.92;25.23;;;;;;;16.15;50.90;99939.31;4998215;28;20034;-78
2023/04/24 05:18:31;;;;;;;26.73;25.27;;;;;;;16.14;51.13;99955.94;5016032;28;20034;-76
2023/04/24 05:20:57;;;;;;;26.23;24.83;;;;;;;16.11;51.09;99956.56;4998763;28;20049;-77
2023/04/24 05:23:25;;;;;;;26.10;24.63;;;;;;;16.10;51.38;99965.81;5016082;28;20541;-77
2023/04/24 05:25:50;;;;;;;25.75;24.42;;;;;;;16.08;51.58;99960.69;5016114;28;20459;-78
2023/04/24 05:28:16;;;;;;;25.48;24.17;;;;;;;16.04;51.34;99973.28;5015552;28;20160;-78
2023/04/24 05:30:41;;;;;;;26.25;24.77;;;;;;;16.05;51.43;99974.09;5015729;28;20378;-77
2023/04/24 05:33:06;;;;;;;26.67;25.27;;;;;;;16.04;51.43;99981.44;5015134;28;20037;-78
2023/04/24 05:35:32;;;;;;;28.27;25.63;;;;;;;16.01;51.45;99974.69;5015376;28;20030;-76
2023/04/24 05:37:57;;;;;;;25.38;24.08;;;;;;;16.00;51.59;99970.34;5015358;28;20117;-77
2023/04/24 05:40:22;;;;;;;26.35;25.05;;;;;;;15.99;51.71;99998.69;4998003;28;20033;-79
2023/04/24 05:42:48;;;;;;;28.00;26.40;;;;;;;15.99;51.60;100008.78;5015470;28;20141;-77
2023/04/24 05:45:16;;;;;;;25.13;23.73;;;;;;;15.96;51.53;100009.38;5015188;28;20033;-78
2023/04/24 05:47:45;;;;;;;26.73;25.33;;;;;;;15.96;51.74;100012.91;5016158;28;20378;-78
2023/04/24 05:50:11;;;;;;;25.05;23.75;;;;;;;15.95;51.77;100026.81;5015190;28;20076;-77
2023/04/24 05:52:36;;;;;;;29.00;27.38;;;;;;;15.92;51.58;100024.69;5015032;28;20466;-78
2023/04/24 05:55:02;;;;;;;26.02;24.63;;;;;;;15.94;51.48;100026.00;4997884;28;20040;-77
2023/04/24 05:57:27;;;;;;;25.98;24.48;;;;;;;15.92;51.66;100030.94;5015303;28;20030;-77
2023/04/24 05:59:53;;;;;;;24.40;23.20;;;;;;;15.92;51.48;100035.56;5014757;28;20030;-77
2023/04/24 06:02:18;;;;;;;25.67;24.15;;;;;;;15.91;51.58;100042.94;5014845;28;20482;-77
2023/04/24 06:04:45;;;;;;;25.90;24.40;;;;;;;15.88;51.47;100053.63;5014853;28;20044;-77
2023/04/24 06:07:13;;;;;;;25.58;24.15;;;;;;;15.87;51.47;100062.88;5014886;28;20025;-77
2023/04/24 06:09:38;;;;;;;25.50;24.10;;;;;;;15.84;51.69;100079.81;5015304;28;20084;-75
2023/04/24 06:12:04;;;;;;;26.00;24.70;;;;;;;15.82;51.69;100093.72;5014685;28;20030;-75
2023/04/24 06:14:29;;;;;;;26.02;24.42;;;;;;;15.84;51.64;100082.53;5014855;28;20030;-77
2023/04/24 06:16:54;;;;;;;25.77;24.23;;;;;;;15.81;51.66;100091.31;5014450;28;20033;-75
2023/04/24 06:19:20;;;;;;;25.25;23.85;;;;;;;15.79;51.93;100103.28;5014700;28;20482;-77
2023/04/24 06:21:45;;;;;;;24.88;23.45;;;;;;;15.79;51.89;100107.94;5014464;28;20034;-77
2023/04/24 06:24:14;;;;;;;24.25;23.00;;;;;;;15.80;51.53;100120.44;5014729;28;20040;-75
2023/04/24 06:26:39;;;;;;;26.65;25.02;;;;;;;15.77;51.75;100130.03;5014457;28;20393;-75
2023/04/24 06:29:07;;;;;;;24.38;23.08;;;;;;;15.78;51.96;100139.00;4996941;28;20120;-76
2023/04/24 06:31:36;;;;;;;24.02;22.73;;;;;;;15.75;52.00;100155.91;5014570;28;20076;-80
2023/04/24 06:34:02;;;;;;;26.00;24.30;;;;;;;15.71;51.88;100160.31;5013299;28;20038;-76
2023/04/24 06:36:28;;;;;;;26.13;24.58;;;;;;;15.70;51.93;100166.84;5014325;28;20061;-75
2023/04/24 06:38:54;;;;;;;27.42;25.83;;;;;;;15.72;51.65;100173.66;5013707;28;20549;-76
2023/04/24 06:41:19;;;;;;;26.00;24.58;;;;;;;15.74;51.73;100189.69;5014298;28;20037;-77
2023/04/24 06:43:45;;;;;;;24.77;23.30;;;;;;;15.74;51.75;100186.97;5014013;28;20196;-76
2023/04/24 06:46:10;;;;;;;26.38;24.48;;;;;;;15.70;51.70;100192.19;5014076;28;20066;-76
2023/04/24 06:48:35;;;;;;;27.92;26.02;;;;;;;15.72;51.45;100195.44;5014504;28;20052;-77
2023/04/24 06:51:01;;;;;;;25.40;24.10;;;;;;;15.72;51.69;100205.50;5013800;28;20061;-76
2023/04/24 06:53:27;;;;;;;26.90;25.13;;;;;;;15.73;51.69;100207.13;4995888;28;20084;-76
2023/04/24 06:55:52;;;;;;;25.38;23.80;;;;;;;15.72;51.52;100217.22;5013581;28;20038;-76
2023/04/24 06:58:18;;;;;;;25.95;24.23;;;;;;;15.68;51.82;100218.06;4995814;28;20129;-76
2023/04/24 07:00:43;;;;;;;25.52;23.98;;;;;;;15.68;51.73;100224.28;5013328;28;20042;-79
2023/04/24 07:03:08;;;;;;;25.50;23.63;;;;;;;15.68;51.76;100226.22;5013288;28;20032;-79
2023/04/24 07:05:35;;;;;;;24.50;22.95;;;;;;;15.67;51.52;100238.19;5013149;28;20030;-76
2023/04/24 07:08:01;;;;;;;27.88;26.23;;;;;;;15.63;51.97;100243.41;5014113;28;20113;-75
2023/04/24 07:10:28;;;;;;;27.60;25.83;;;;;;;15.59;51.86;100240.44;4996285;28;20099;-78
2023/04/24 07:12:54;;;;;;;28.45;26.75;;;;;;;15.58;52.03;100257.06;5013380;28;20030;-75
2023/04/24 07:15:20;;;;;;;25.85;24.08;;;;;;;15.58;51.59;100262.53;4996098;28;20042;-78
2023/04/24 07:17:46;;;;;;;25.27;23.70;;;;;;;15.59;51.60;100278.56;5012989;28;20129;-78
2023/04/24 07:20:11;;;;;;;26.27;24.63;;;;;;;15.57;52.15;100282.66;5013262;28;20086;-76
2023/04/24 07:22:40;;;;;;;28.00;26.35;;;;;;;15.58;51.67;100290.56;5013142;28;20433;-77
2023/04/24 07:25:06;;;;;;;26.85;25.35;;;;;;;15.57;51.93;100291.66;5013077;28;20036;-78
2023/04/24 07:27:32;;;;;;;26.65;25.05;;;;;;;15.58;51.44;100292.47;5014934;28;20045;-77
2023/04/24 07:29:57;;;;;;;26.75;24.88;;;;;;;15.58;51.68;100297.91;5017202;28;20377;-75
2023/04/24 07:32:23;;;;;;;29.45;27.55;;;;;;;15.58;51.59;100306.88;5017204;28;20025;-77
2023/04/24 07:34:48;;;;;;;28.63;26.75;;;;;;;15.57;51.56;100308.00;5017101;28;20033;-75
2023/04/24 07:37:13;;;;;;;25.70;23.98;;;;;;;15.58;51.42;100314.25;5017141;28;20390;-76
2023/04/24 07:39:39;;;;;;;24.83;23.33;;;;;;;15.56;51.43;100309.06;5016683;28;20121;-77
2023/04/24 07:42:04;;;;;;;26.17;23.63;;;;;;;15.55;51.42;100315.63;4999769;28;20034;-76
2023/04/24 07:44:29;;;;;;;25.63;24.08;;;;;;;15.57;51.56;100328.94;5017344;28;20039;-76
2023/04/24 07:46:55;;;;;;;25.67;24.25;;;;;;;15.54;51.55;100338.50;5016499;28;20478;-76
2023/04/24 07:49:21;;;;;;;24.80;23.38;;;;;;;15.53;51.69;100338.78;5016822;28;20128;-77
2023/04/24 07:51:46;;;;;;;23.60;22.40;;;;;;;15.52;51.65;100356.22;5016884;28;20037;-76
2023/04/24 07:54:12;;;;;;;24.70;23.30;;;;;;;15.49;51.54;100352.16;5016769;28;20042;-76
2023/04/24 07:56:42;;;;;;;24.77;23.40;;;;;;;15.51;51.40;100360.03;5017365;28;20057;-76
2023/04/24 07:59:09;;;;;;;26.48;24.65;;;;;;;15.51;51.39;100368.19;5017302;28;20366;-77
2023/04/24 08:01:34;;;;;;;27.55;25.95;;;;;;;15.50;51.57;100367.41;5016714;28;20088;-76
2023/04/24 08:04:00;;;;;;;25.45;23.83;;;;;;;15.48;51.54;100372.31;5016177;28;20030;-76
2023/04/24 08:06:29;;;;;;;26.65;24.95;;;;;;;15.45;51.84;100381.06;5017622;28;20045;-78
2023/04/24 08:08:55;;;;;;;25.95;24.13;;;;;;;15.44;51.70;100387.56;5016565;28;20133;-75
2023/04/24 08:11:21;;;;;;;24.25;22.92;;;;;;;15.46;51.42;100385.38;5016604;28;20108;-76
2023/04/24 08:13:46;;;;;;;24.77;23.38;;;;;;;15.46;51.68;100384.56;5016552;28;20432;-77
2023/04/24 08:16:12;;;;;;;24.92;23.27;;;;;;;15.46;51.49;100393.56;5016392;28;20041;-76
2023/04/24 08:18:37;;;;;;;25.35;23.80;;;;;;;15.46;51.77;100384.56;5016367;28;20042;-75
2023/04/24 08:21:03;;;;;;;25.52;24.13;;;;;;;15.46;51.83;100401.72;5016515;28;20026;-75
2023/04/24 08:23:29;;;;;;;25.67;24.17;;;;;;;15.46;51.70;100406.34;5016436;28;20036;-76
2023/04/24 08:25:55;;;;;;;25.90;24.05;;;;;;;15.45;51.53;100418.34;5016601;28;20455;-75
2023/04/24 08:28:20;;;;;;;25.23;23.67;;;;;;;15.42;51.58;100418.88;5016131;28;20037;-75
2023/04/24 08:30:47;;;;;;;24.58;23.17;;;;;;;15.41;51.38;100428.97;5016597;28;20046;-75
2023/04/24 08:33:12;;;;;;;23.42;22.20;;;;;;;15.42;51.84;100433.34;5015802;28;20354;-75
2023/04/24 08:35:38;;;;;;;25.00;23.70;;;;;;;15.37;52.03;100444.22;5015783;28;20091;-75
2023/04/24 08:38:04;;;;;;;25.40;23.88;;;;;;;15.32;52.12;100464.16;4998128;28;20022;-77
2023/04/24 08:40:33;;;;;;;24.35;22.95;;;;;;;15.34;51.84;100469.28;5015932;28;20116;-77
2023/04/24 08:43:00;;;;;;;26.60;24.75;;;;;;;15.33;52.05;100465.75;5015950;28;20061;-74
2023/04/24 08:45:26;;;;;;;25.13;23.27;;;;;;;15.33;51.90;100457.59;5015876;28;20401;-75
2023/04/24 08:47:54;;;;;;;23.60;22.30;;;;;;;15.36;51.75;100467.09;5016937;28;20040;-76
2023/04/24 08:50:21;;;;;;;23.83;22.45;;;;;;;15.37;51.81;100463.28;5016271;28;20091;-75
2023/04/24 08:52:50;;;;;;;23.80;22.30;;;;;;;15.36;51.70;100472.56;5015823;28;20121;-78
2023/04/24 08:55:17;;;;;;;23.15;21.60;;;;;;;15.37;51.77;100476.88;5015502;28;20030;-78
2023/04/24 08:57:45;;;;;;;23.45;22.10;;;;;;;15.36;51.66;100486.97;5016039;28;20117;-78
2023/04/24 09:00:11;;;;;;;25.58;23.92;;;;;;;15.38;51.84;100488.59;5015510;28;20041;-76
2023/04/24 09:02:38;;;;;;;23.70;22.40;;;;;;;15.37;51.73;100479.59;5015577;28;20065;-79
2023/04/24 09:05:06;;;;;;;24.55;23.23;;;;;;;15.36;51.73;100489.69;5014294;28;20034;-78
2023/04/24 09:07:35;;;;;;;26.02;24.08;;;;;;;15.39;51.36;100498.38;5015407;28;20075;-78
2023/04/24 09:10:02;;;;;;;25.50;23.80;;;;;;;15.38;51.61;100491.34;5015613;28;20029;-80
2023/04/24 09:12:27;;;;;;;24.15;22.85;;;;;;;15.34;52.00;100494.59;5015451;28;20466;-77
2023/04/24 09:14:53;;;;;;;22.58;21.48;;;;;;;15.32;51.78;100515.84;5015279;28;20045;-78
2023/04/24 09:17:19;;;;;;;23.60;22.30;;;;;;;15.30;52.02;100517.22;4998463;28;20030;-77
2023/04/24 09:19:44;;;;;;;23.92;22.52;;;;;;;15.25;52.26;100528.13;5015944;28;20390;-79
2023/04/24 09:22:11;;;;;;;25.05;23.55;;;;;;;15.22;51.92;100526.78;5015486;28;20026;-80
2023/04/24 09:24:36;;;;;;;24.33;22.98;;;;;;;15.26;52.18;100533.28;5014660;28;20033;-77
2023/04/24 09:27:02;;;;;;;24.70;23.30;;;;;;;15.27;51.99;100534.09;5015234;28;20072;-77
2023/04/24 09:29:28;;;;;;;24.95;23.55;;;;;;;15.26;51.88;100533.28;5015242;28;20038;-74
2023/04/24 09:31:53;;;;;;;25.23;23.63;;;;;;;15.27;51.95;100534.09;5015502;28;20034;-78
2023/04/24 09:34:24;;;;;;;23.25;22.05;;;;;;;15.30;51.80;100536.28;5014870;28;20371;-77
2023/04/24 09:36:51;;;;;;;24.13;22.70;;;;;;;15.26;51.97;100546.06;5015724;28;20033;-75
2023/04/24 09:39:17;;;;;;;24.10;22.80;;;;;;;15.26;52.09;100551.53;5015472;28;20485;-74
2023/04/24 09:41:53;;;;;;;23.65;22.10;;;;;;;15.27;52.24;100550.41;5015875;28;20069;-75
2023/04/24 09:44:23;;;;;;;22.33;21.08;;;;;;;15.26;52.24;100541.44;5015119;28;20034;-75
2023/04/24 09:46:55;;;;;;;22.67;21.48;;;;;;;15.24;52.25;100556.41;5015008;28;20034;-77
2023/04/24 09:49:35;;;;;;;23.65;22.42;;;;;;;15.23;52.17;100557.53;5014562;28;20108;-77
2023/04/24 09:52:10;;;;;;;24.85;23.33;;;;;;;15.18;52.04;100555.63;5014822;28;20458;-78
2023/04/24 09:54:36;;;;;;;23.60;22.23;;;;;;;15.21;51.99;100574.13;5015163;28;20040;-74
2023/04/24 09:57:02;;;;;;;24.00;22.20;;;;;;;15.23;52.13;100571.94;5014383;28;20367;-79
2023/04/24 09:59:29;;;;;;;24.85;23.35;;;;;;;15.24;52.04;100564.59;5015344;28;20454;-75
2023/04/24 10:01:54;;;;;;;24.10;22.80;;;;;;;15.23;52.01;100571.94;5014441;28;20037;-78
2023/04/24 10:04:24;;;;;;;22.35;21.15;;;;;;;15.25;51.88;100580.66;4996698;28;20387;-80
2023/04/24 10:06:51;;;;;;;23.30;22.00;;;;;;;15.25;51.92;100591.53;5014573;28;20030;-77
2023/04/24 10:09:21;;;;;;;23.77;22.38;;;;;;;15.22;51.70;100600.25;5014336;28;20124;-77
2023/04/24 10:11:49;;;;;;;23.40;22.10;;;;;;;15.25;51.71;100596.97;5014190;28;20030;-77
2023/04/24 10:14:22;;;;;;;24.20;22.30;;;;;;;15.23;51.72;100610.03;5014764;28;20043;-74
2023/04/24 10:16:49;;;;;;;23.73;22.30;;;;;;;15.25;51.64;100601.59;5014388;28;20252;-74
2023/04/24 10:19:18;;;;;;;24.67;23.35;;;;;;;15.25;51.57;100604.31;5013492;28;20139;-75
2023/04/24 10:21:47;;;;;;;22.67;21.58;;;;;;;15.25;51.64;100605.13;5014863;28;20121;-74
2023/04/24 10:24:15;;;;;;;24.65;23.23;;;;;;;15.28;51.31;100607.28;5015054;28;20430;-78
2023/04/24 10:26:41;;;;;;;23.27;21.73;;;;;;;15.27;51.40;100613.84;5013788;28;20057;-76
2023/04/24 10:29:12;;;;;;;23.73;22.42;;;;;;;15.25;51.71;100607.84;5014177;28;20031;-75
2023/04/24 10:31:38;;;;;;;22.38;21.17;;;;;;;15.23;51.58;100611.94;5013852;28;20109;-77
2023/04/24 10:34:05;;;;;;;24.63;23.25;;;;;;;15.24;51.55;100610.84;5013847;28;20026;-73
2023/04/24 10:36:33;;;;;;;23.58;22.20;;;;;;;15.25;51.51;100610.56;5014268;28;20430;-76
2023/04/24 10:39:01;;;;;;;22.58;21.27;;;;;;;15.27;51.66;100615.72;5014035;28;20053;-74
2023/04/24 10:41:27;;;;;;;23.25;22.00;;;;;;;15.28;51.33;100612.75;5014201;28;20034;-73
2023/04/24 10:44:06;;;;;;;23.55;22.25;;;;;;;15.28;51.59;100618.19;4996315;28;20034;-77
2023/04/24 10:46:32;;;;;;;22.92;21.73;;;;;;;15.26;51.60;100614.91;4997440;28;20042;-75
2023/04/24 10:48:58;;;;;;;23.88;22.58;;;;;;;15.24;51.53;100636.13;5014827;28;20107;-75
2023/04/24 10:51:42;;;;;;;23.63;22.27;;;;;;;15.26;51.53;100631.25;5014255;28;20164;-82
2023/04/24 10:54:22;;;;;;;24.30;22.90;;;;;;;15.26;51.42;100646.75;5015095;28;20041;-79
2023/04/24 10:56:47;;;;;;;23.33;22.13;;;;;;;15.28;51.53;100639.94;5014230;28;20061;-78
2023/04/24 10:59:24;;;;;;;23.55;22.25;;;;;;;15.30;51.22;100643.22;5013678;28;20073;-77
2023/04/24 11:01:55;;;;;;;24.55;23.20;;;;;;;15.31;51.35;100636.66;5013657;28;20478;-78
2023/04/24 11:04:31;;;;;;;23.45;21.95;;;;;;;15.34;51.28;100648.91;5013439;28;20034;-77
2023/04/24 11:06:57;;;;;;;22.20;20.90;;;;;;;15.35;51.03;100653.28;5013812;28;20042;-75
2023/04/24 11:09:26;;;;;;;26.05;24.60;;;;;;;15.34;51.18;100652.44;5013627;28;20121;-77
2023/04/24 11:12:06;;;;;;;22.27;21.08;;;;;;;15.33;51.57;100644.56;5013650;28;20030;-76